createdAt,value
2018-07-17T00:00:33.380Z,11.70
2018-07-17T00:03:02.645Z,11.70
2018-07-17T00:05:31.864Z,11.60
2018-07-17T00:08:01.106Z,11.60
2018-07-17T00:10:30.308Z,11.60
2018-07-17T00:12:59.489Z,11.60
2018-07-17T00:15:28.892Z,11.60
2018-07-17T00:17:58.102Z,11.60
2018-07-17T00:20:27.274Z,11.50
2018-07-17T00:22:56.512Z,11.50
2018-07-17T00:25:25.734Z,11.50
2018-07-17T00:30:23.708Z,11.50
2018-07-17T00:32:52.920Z,11.40
2018-07-17T00:35:22.160Z,11.40
2018-07-17T00:37:51.416Z,11.40
2018-07-17T00:40:20.601Z,11.40
2018-07-17T00:42:49.788Z,11.40
2018-07-17T00:48:51.070Z,11.30
2018-07-17T00:51:20.261Z,11.30
2018-07-17T00:53:49.410Z,11.30
2018-07-17T00:56:18.595Z,11.30
2018-07-17T00:58:47.744Z,11.20
2018-07-17T01:01:22.284Z,11.20
2018-07-17T01:03:56.851Z,11.10
2018-07-17T01:06:31.125Z,11.10
2018-07-17T01:09:05.703Z,11.10
2018-07-17T01:11:40.243Z,11.00
2018-07-17T01:14:14.309Z,11.00
2018-07-17T01:16:43.497Z,10.90
2018-07-17T01:19:12.712Z,10.90
2018-07-17T01:24:10.732Z,10.90
2018-07-17T01:26:40.102Z,10.80
2018-07-17T01:29:09.397Z,10.80
2018-07-17T01:31:38.557Z,10.80
2018-07-17T01:34:07.840Z,10.80
2018-07-17T01:36:37.153Z,10.80
2018-07-17T01:39:07.274Z,10.90
2018-07-17T01:41:36.422Z,10.90
2018-07-17T01:44:05.617Z,10.90
2018-07-17T01:46:34.816Z,10.90
2018-07-17T01:49:04.040Z,11.00
2018-07-17T01:51:33.244Z,10.80
2018-07-17T01:54:02.382Z,10.80
2018-07-17T01:56:31.810Z,10.80
2018-07-17T01:59:01.080Z,10.80
2018-07-17T02:01:30.263Z,10.80
2018-07-17T02:03:59.467Z,10.90
2018-07-17T02:06:28.624Z,11.00
2018-07-17T02:08:57.966Z,11.10
2018-07-17T02:11:27.165Z,11.20
2018-07-17T02:13:56.371Z,11.20
2018-07-17T02:16:25.602Z,11.30
2018-07-17T02:18:55.108Z,11.30
2018-07-17T02:21:24.324Z,11.30
2018-07-17T02:26:22.255Z,11.20
2018-07-17T02:28:51.421Z,11.20
2018-07-17T02:31:20.637Z,11.10
2018-07-17T02:33:49.856Z,11.20
2018-07-17T02:36:19.066Z,11.20
2018-07-17T02:38:48.242Z,11.10
2018-07-17T02:41:17.491Z,11.00
2018-07-17T02:46:15.443Z,11.00
2018-07-17T02:48:44.632Z,11.00
2018-07-17T02:51:13.772Z,10.90
2018-07-17T02:53:42.928Z,10.80
2018-07-17T02:56:12.080Z,10.70
2018-07-17T02:58:41.332Z,10.70
2018-07-17T03:01:10.493Z,10.70
2018-07-17T03:03:39.655Z,10.60
2018-07-17T03:06:08.776Z,10.70
2018-07-17T03:08:37.981Z,10.60
2018-07-17T03:11:07.163Z,10.60
2018-07-17T03:13:36.331Z,10.60
2018-07-17T03:16:05.487Z,10.50
2018-07-17T03:18:34.618Z,10.60
2018-07-17T03:21:03.815Z,10.50
2018-07-17T03:23:32.962Z,10.50
2018-07-17T03:26:02.132Z,10.40
2018-07-17T03:28:31.347Z,10.40
2018-07-17T03:31:00.480Z,10.50
2018-07-17T03:33:29.636Z,10.40
2018-07-17T03:35:59.176Z,10.40
2018-07-17T03:38:28.378Z,10.40
2018-07-17T03:40:57.937Z,10.40
2018-07-17T03:43:27.501Z,10.40
2018-07-17T03:45:57.020Z,10.40
2018-07-17T03:48:26.565Z,10.30
2018-07-17T03:50:56.039Z,10.40
2018-07-17T03:53:25.755Z,10.30
2018-07-17T03:55:55.574Z,10.40
2018-07-17T03:58:25.106Z,10.50
2018-07-17T04:00:54.635Z,10.40
2018-07-17T04:03:24.167Z,10.40
2018-07-17T04:05:53.640Z,10.40
2018-07-17T04:08:23.151Z,10.60
2018-07-17T04:10:52.669Z,10.60
2018-07-17T04:13:22.252Z,10.60
2018-07-17T04:15:52.550Z,10.60
2018-07-17T04:18:22.092Z,10.50
2018-07-17T04:20:51.585Z,10.60
2018-07-17T04:23:21.131Z,10.60
2018-07-17T04:25:50.709Z,10.70
2018-07-17T04:28:20.209Z,10.70
2018-07-17T04:30:49.878Z,10.70
2018-07-17T04:33:19.433Z,10.70
2018-07-17T04:35:48.958Z,10.80
2018-07-17T04:38:18.499Z,10.80
2018-07-17T04:40:48.083Z,10.90
2018-07-17T04:43:17.594Z,10.90
2018-07-17T04:45:47.185Z,11.00
2018-07-17T04:48:16.669Z,11.00
2018-07-17T04:50:46.190Z,11.00
2018-07-17T04:53:15.780Z,11.10
2018-07-17T04:55:45.253Z,11.20
2018-07-17T04:58:14.821Z,11.30
2018-07-17T05:00:44.451Z,11.30
2018-07-17T05:03:14.019Z,11.40
2018-07-17T05:05:43.569Z,11.50
2018-07-17T05:08:13.127Z,11.60
2018-07-17T05:10:42.714Z,11.80
2018-07-17T05:13:12.296Z,11.80
2018-07-17T05:15:41.888Z,11.90
2018-07-17T05:18:11.512Z,12.00
2018-07-17T05:20:41.089Z,12.10
2018-07-17T05:23:10.639Z,12.20
2018-07-17T05:25:40.237Z,12.40
2018-07-17T05:28:09.799Z,12.50
2018-07-17T05:30:39.535Z,12.70
2018-07-17T05:33:09.320Z,12.80
2018-07-17T05:35:38.913Z,12.90
2018-07-17T05:38:08.509Z,13.10
2018-07-17T05:40:38.159Z,13.20
2018-07-17T05:43:07.733Z,13.40
2018-07-17T05:45:37.341Z,13.50
2018-07-17T05:48:06.890Z,13.70
2018-07-17T05:50:36.454Z,13.80
2018-07-17T05:53:06.018Z,13.90
2018-07-17T05:55:35.757Z,14.10
2018-07-17T05:58:05.297Z,14.30
2018-07-17T06:00:35.015Z,14.50
2018-07-17T06:03:04.593Z,14.70
2018-07-17T06:05:34.127Z,15.00
2018-07-17T06:08:03.722Z,15.20
2018-07-17T06:10:33.301Z,15.30
2018-07-17T06:13:02.938Z,15.50
2018-07-17T06:15:32.488Z,15.70
2018-07-17T06:18:02.047Z,15.80
2018-07-17T06:20:31.640Z,15.90
2018-07-17T06:23:01.302Z,16.20
2018-07-17T06:25:30.885Z,16.30
2018-07-17T06:28:00.431Z,16.60
2018-07-17T06:30:30.020Z,16.80
2018-07-17T06:32:59.240Z,17.00
2018-07-17T06:35:28.841Z,17.20
2018-07-17T06:37:58.425Z,17.40
2018-07-17T06:40:27.984Z,17.60
2018-07-17T06:42:57.609Z,17.70
2018-07-17T06:45:27.225Z,17.80
2018-07-17T06:47:56.844Z,18.00
2018-07-17T06:50:26.475Z,18.10
2018-07-17T06:52:56.077Z,18.40
2018-07-17T06:55:25.674Z,18.50
2018-07-17T06:57:55.350Z,18.60
2018-07-17T07:00:24.894Z,18.80
2018-07-17T07:02:54.459Z,19.00
2018-07-17T07:05:24.095Z,19.20
2018-07-17T07:07:53.669Z,19.30
2018-07-17T07:10:23.513Z,19.50
2018-07-17T07:12:53.086Z,19.70
2018-07-17T07:15:22.664Z,19.90
2018-07-17T07:17:52.281Z,20.10
2018-07-17T07:20:21.813Z,20.20
2018-07-17T07:22:51.399Z,20.40
2018-07-17T07:25:20.996Z,20.70
2018-07-17T07:27:50.816Z,21.00
2018-07-17T07:30:20.385Z,21.10
2018-07-17T07:32:50.103Z,21.30
2018-07-17T07:35:19.666Z,21.50
2018-07-17T07:37:49.364Z,21.70
2018-07-17T07:40:18.943Z,22.10
2018-07-17T07:42:48.612Z,22.40
2018-07-17T07:45:19.192Z,22.70
2018-07-17T07:47:48.767Z,23.00
2018-07-17T07:50:18.377Z,23.40
2018-07-17T07:52:48.060Z,23.90
2018-07-17T07:55:17.556Z,24.20
2018-07-17T07:57:47.397Z,24.50
2018-07-17T08:00:17.020Z,25.00
2018-07-17T08:02:46.641Z,24.90
2018-07-17T08:05:16.449Z,25.20
2018-07-17T08:07:46.086Z,25.60
2018-07-17T08:10:15.853Z,25.70
2018-07-17T08:12:45.472Z,25.60
2018-07-17T08:15:15.267Z,26.00
2018-07-17T08:17:44.796Z,26.00
2018-07-17T08:20:14.472Z,26.00
2018-07-17T08:22:44.003Z,26.10
2018-07-17T08:25:13.594Z,26.40
2018-07-17T08:27:43.294Z,26.60
2018-07-17T08:30:12.876Z,26.50
2018-07-17T08:32:42.457Z,26.10
2018-07-17T08:35:12.042Z,26.20
2018-07-17T08:37:41.623Z,26.50
2018-07-17T08:40:11.257Z,26.60
2018-07-17T08:42:40.897Z,26.50
2018-07-17T08:45:10.689Z,25.90
2018-07-17T08:47:40.375Z,26.00
2018-07-17T08:50:09.943Z,26.40
2018-07-17T08:52:39.632Z,26.40
2018-07-17T08:55:09.252Z,26.20
2018-07-17T08:57:38.942Z,26.10
2018-07-17T09:00:08.778Z,26.50
2018-07-17T09:02:38.396Z,26.40
2018-07-17T09:05:08.079Z,26.50
2018-07-17T09:07:37.740Z,26.90
2018-07-17T09:10:07.453Z,26.60
2018-07-17T09:12:37.160Z,26.60
2018-07-17T09:15:06.950Z,26.60
2018-07-17T09:17:36.589Z,26.50
2018-07-17T09:20:06.444Z,26.10
2018-07-17T09:22:36.125Z,26.10
2018-07-17T09:25:06.079Z,26.20
2018-07-17T09:27:37.764Z,26.30
2018-07-17T09:30:08.007Z,26.50
2018-07-17T09:32:37.680Z,26.30
2018-07-17T09:35:07.531Z,26.30
2018-07-17T09:37:37.052Z,26.50
2018-07-17T09:40:06.717Z,26.60
2018-07-17T09:42:36.320Z,26.70
2018-07-17T09:45:06.327Z,27.10
2018-07-17T09:47:35.854Z,26.70
2018-07-17T09:50:05.653Z,26.20
2018-07-17T09:52:35.262Z,26.00
2018-07-17T09:55:05.047Z,26.10
2018-07-17T09:57:34.683Z,26.00
2018-07-17T10:00:04.751Z,25.70
2018-07-17T10:02:34.659Z,25.60
2018-07-17T10:05:04.715Z,25.80
2018-07-17T10:07:34.798Z,26.00
2018-07-17T10:10:05.055Z,26.40
2018-07-17T10:12:35.723Z,26.60
2018-07-17T10:15:05.658Z,27.00
2018-07-17T10:17:35.683Z,27.40
2018-07-17T10:20:06.807Z,27.20
2018-07-17T10:22:36.494Z,27.10
2018-07-17T10:25:06.884Z,26.90
2018-07-17T10:27:36.530Z,26.90
2018-07-17T10:30:07.601Z,27.20
2018-07-17T10:32:37.356Z,26.90
2018-07-17T10:35:07.241Z,27.10
2018-07-17T10:37:36.965Z,27.40
2018-07-17T10:40:07.187Z,27.40
2018-07-17T10:42:36.995Z,27.60
2018-07-17T10:45:06.325Z,27.70
2018-07-17T10:47:35.770Z,27.90
2018-07-17T10:50:05.042Z,27.70
2018-07-17T10:52:34.236Z,27.40
2018-07-17T10:55:03.917Z,27.40
2018-07-17T10:57:34.052Z,27.10
2018-07-17T11:00:03.778Z,26.30
2018-07-17T11:02:32.993Z,25.60
2018-07-17T11:05:05.028Z,25.20
2018-07-17T11:07:34.259Z,25.40
2018-07-17T11:10:03.492Z,25.80
2018-07-17T11:12:32.763Z,26.30
2018-07-17T11:15:02.003Z,26.90
2018-07-17T11:17:31.484Z,27.20
2018-07-17T11:20:00.693Z,26.80
2018-07-17T11:22:29.876Z,27.00
2018-07-17T11:24:59.029Z,27.20
2018-07-17T11:27:28.332Z,27.40
2018-07-17T11:29:57.732Z,27.30
2018-07-17T11:32:28.266Z,27.10
2018-07-17T11:34:57.561Z,26.50
2018-07-17T11:37:28.589Z,26.00
2018-07-17T11:39:58.522Z,26.10
2018-07-17T11:42:28.934Z,26.10
2018-07-17T11:44:59.647Z,25.70
2018-07-17T11:47:29.978Z,25.90
2018-07-17T11:49:59.490Z,26.00
2018-07-17T11:52:28.816Z,26.30
2018-07-17T11:54:58.611Z,26.10
2018-07-17T11:57:29.165Z,25.80
2018-07-17T11:59:58.618Z,25.50
2018-07-17T12:02:27.970Z,25.50
2018-07-17T12:04:57.662Z,25.60
2018-07-17T12:07:26.886Z,25.70
2018-07-17T12:09:56.258Z,25.80
2018-07-17T12:12:25.626Z,25.70
2018-07-17T12:14:54.965Z,25.70
2018-07-17T12:17:24.297Z,25.70
2018-07-17T12:19:54.030Z,25.80
2018-07-17T12:22:23.745Z,26.20
2018-07-17T12:24:53.089Z,26.60
2018-07-17T12:27:23.351Z,27.20
2018-07-17T12:29:52.826Z,27.50
2018-07-17T12:32:22.633Z,27.80
2018-07-17T12:34:53.263Z,27.90
2018-07-17T12:37:23.902Z,27.60
2018-07-17T12:39:54.381Z,27.10
2018-07-17T12:42:23.832Z,26.60
2018-07-17T12:44:53.419Z,26.10
2018-07-17T12:47:24.137Z,26.20
2018-07-17T12:49:53.690Z,26.00
2018-07-17T12:52:24.158Z,26.10
2018-07-17T12:54:54.494Z,26.20
2018-07-17T12:57:24.155Z,26.20
2018-07-17T12:59:53.827Z,25.70
2018-07-17T13:02:23.389Z,25.30
2018-07-17T13:04:52.889Z,25.20
2018-07-17T13:07:22.389Z,25.00
2018-07-17T13:09:52.140Z,24.90
2018-07-17T13:14:50.758Z,24.70
2018-07-17T13:17:20.134Z,24.70
2018-07-17T13:19:49.566Z,24.80
2018-07-17T13:22:18.864Z,25.10
2018-07-17T13:24:48.521Z,25.60
2018-07-17T13:27:17.793Z,26.50
2018-07-17T13:29:47.094Z,27.00
2018-07-17T13:32:16.584Z,27.00
2018-07-17T13:34:46.026Z,26.70
2018-07-17T13:37:15.380Z,27.30
2018-07-17T13:39:44.596Z,26.80
2018-07-17T13:42:13.916Z,26.60
2018-07-17T13:44:44.834Z,26.80
2018-07-17T13:47:18.199Z,27.60
2018-07-17T13:49:47.420Z,28.10
2018-07-17T13:52:17.739Z,28.70
2018-07-17T13:54:47.188Z,29.10
2018-07-17T13:57:16.520Z,30.00
2018-07-17T13:59:47.581Z,30.70
2018-07-17T14:02:17.206Z,31.20
2018-07-17T14:04:46.514Z,31.50
2018-07-17T14:07:15.860Z,31.70
2018-07-17T14:09:45.544Z,30.80
2018-07-17T14:12:15.057Z,30.60
2018-07-17T14:14:44.386Z,29.70
2018-07-17T14:17:14.801Z,29.30
2018-07-17T14:19:44.225Z,28.50
2018-07-17T14:22:13.632Z,28.60
2018-07-17T14:24:43.403Z,29.00
2018-07-17T14:27:13.119Z,29.50
2018-07-17T14:29:42.651Z,29.40
2018-07-17T14:32:12.108Z,29.70
2018-07-17T14:34:41.516Z,29.60
2018-07-17T14:37:11.771Z,29.70
2018-07-17T14:39:41.096Z,30.10
2018-07-17T14:42:10.433Z,30.70
2018-07-17T14:44:39.611Z,31.20
2018-07-17T14:47:09.220Z,31.40
2018-07-17T14:49:39.688Z,31.30
2018-07-17T14:52:09.981Z,31.00
2018-07-17T14:54:39.730Z,30.50
2018-07-17T14:57:09.379Z,30.70
2018-07-17T14:59:38.981Z,30.30
2018-07-17T15:02:08.656Z,30.70
2018-07-17T15:04:38.792Z,30.50
2018-07-17T15:07:08.556Z,31.00
2018-07-17T15:09:38.364Z,30.60
2018-07-17T15:12:08.480Z,30.30
2018-07-17T15:14:38.184Z,30.80
2018-07-17T15:17:07.885Z,30.90
2018-07-17T15:19:37.944Z,29.90
2018-07-17T15:22:07.836Z,28.20
2018-07-17T15:24:38.159Z,27.40
2018-07-17T15:27:07.886Z,28.10
2018-07-17T15:29:37.516Z,28.30
2018-07-17T15:32:07.959Z,27.60
2018-07-17T15:34:37.651Z,27.70
2018-07-17T15:37:07.134Z,28.80
2018-07-17T15:39:36.708Z,29.70
2018-07-17T15:42:06.704Z,30.70
2018-07-17T15:44:36.706Z,31.00
2018-07-17T15:47:06.596Z,30.90
2018-07-17T15:49:38.474Z,30.20
2018-07-17T15:54:37.927Z,28.20
2018-07-17T15:57:07.622Z,28.10
2018-07-17T15:59:37.988Z,29.00
2018-07-17T16:02:07.763Z,28.80
2018-07-17T16:04:37.472Z,28.70
2018-07-17T16:07:07.086Z,28.90
2018-07-17T16:09:36.784Z,28.80
2018-07-17T16:12:06.917Z,28.70
2018-07-17T16:14:36.542Z,29.60
2018-07-17T16:17:06.740Z,30.20
2018-07-17T16:19:36.419Z,30.30
2018-07-17T16:22:06.800Z,30.90
2018-07-17T16:24:37.070Z,31.30
2018-07-17T16:27:07.233Z,31.00
2018-07-17T16:29:37.491Z,30.60
2018-07-17T16:32:08.079Z,30.60
2018-07-17T16:34:37.680Z,30.20
2018-07-17T16:37:07.885Z,30.20
2018-07-17T16:39:37.617Z,30.10
2018-07-17T16:42:08.032Z,29.70
2018-07-17T16:44:37.557Z,29.60
2018-07-17T16:47:07.327Z,29.50
2018-07-17T16:49:37.029Z,29.20
2018-07-17T16:52:06.846Z,29.30
2018-07-17T16:54:36.563Z,29.20
2018-07-17T16:57:06.868Z,29.30
2018-07-17T16:59:37.065Z,29.20
2018-07-17T17:02:07.110Z,28.70
2018-07-17T17:04:36.742Z,28.50
2018-07-17T17:07:07.024Z,28.50
2018-07-17T17:09:36.640Z,28.60
2018-07-17T17:12:06.440Z,28.10
2018-07-17T17:14:36.259Z,28.00
2018-07-17T17:17:06.520Z,28.30
2018-07-17T17:19:37.030Z,28.70
2018-07-17T17:22:06.748Z,29.10
2018-07-17T17:24:38.025Z,28.40
2018-07-17T17:27:08.209Z,27.40
2018-07-17T17:29:37.865Z,27.10
2018-07-17T17:32:07.721Z,27.10
2018-07-17T17:34:37.954Z,27.30
2018-07-17T17:37:07.828Z,27.30
2018-07-17T17:39:38.253Z,27.40
2018-07-17T17:42:08.551Z,27.70
2018-07-17T17:44:38.473Z,27.70
2018-07-17T17:47:08.548Z,27.80
2018-07-17T17:49:38.226Z,28.00
2018-07-17T17:52:07.788Z,28.00
2018-07-17T17:54:37.718Z,27.70
2018-07-17T17:57:07.453Z,27.70
2018-07-17T17:59:37.184Z,27.90
2018-07-17T18:02:06.597Z,28.10
2018-07-17T18:04:35.936Z,27.80
2018-07-17T18:07:07.024Z,28.00
2018-07-17T18:09:36.293Z,28.00
2018-07-17T18:12:05.737Z,27.20
2018-07-17T18:14:34.859Z,26.50
2018-07-17T18:17:04.849Z,26.10
2018-07-17T18:19:34.715Z,25.80
2018-07-17T18:22:03.892Z,25.80
2018-07-17T18:24:33.084Z,25.70
2018-07-17T18:27:02.482Z,25.90
2018-07-17T18:29:31.730Z,25.60
2018-07-17T18:32:00.904Z,25.20
2018-07-17T18:34:30.183Z,25.10
2018-07-17T18:36:59.732Z,24.70
2018-07-17T18:39:29.589Z,24.30
2018-07-17T18:41:58.776Z,23.90
2018-07-17T18:44:27.996Z,23.80
2018-07-17T18:46:57.594Z,23.70
2018-07-17T18:49:27.130Z,23.50
2018-07-17T18:51:56.412Z,23.20
2018-07-17T18:54:25.618Z,23.00
2018-07-17T18:56:54.947Z,22.80
2018-07-17T18:59:24.207Z,22.70
2018-07-17T19:01:54.184Z,22.50
2018-07-17T19:04:23.689Z,22.30
2018-07-17T19:06:53.148Z,22.20
2018-07-17T19:09:22.382Z,22.10
2018-07-17T19:11:51.612Z,22.00
2018-07-17T19:14:20.881Z,21.90
2018-07-17T19:16:50.833Z,21.80
2018-07-17T19:19:20.225Z,21.50
2018-07-17T19:21:49.528Z,21.30
2018-07-17T19:24:19.607Z,21.20
2018-07-17T19:26:48.846Z,21.00
2018-07-17T19:29:18.619Z,20.80
2018-07-17T19:31:48.510Z,20.70
2018-07-17T19:34:17.688Z,20.50
2018-07-17T19:36:47.028Z,20.40
2018-07-17T19:39:16.730Z,20.20
2018-07-17T19:41:46.036Z,20.20
2018-07-17T19:44:15.275Z,20.10
2018-07-17T19:46:44.436Z,20.00
2018-07-17T19:49:13.684Z,19.90
2018-07-17T19:51:42.920Z,19.90
2018-07-17T19:54:12.076Z,19.80
2018-07-17T19:56:41.218Z,19.80
2018-07-17T19:59:10.361Z,19.90
2018-07-17T20:01:39.612Z,19.90
2018-07-17T20:04:08.788Z,19.80
2018-07-17T20:06:37.992Z,19.80
2018-07-17T20:09:08.184Z,19.60
2018-07-17T20:11:37.407Z,19.60
2018-07-17T20:14:06.867Z,19.60
2018-07-17T20:16:36.113Z,19.60
2018-07-17T20:19:05.452Z,19.60
2018-07-17T20:21:34.625Z,19.50
2018-07-17T20:24:03.846Z,19.40
2018-07-17T20:26:33.117Z,19.40
2018-07-17T20:29:02.346Z,19.40
2018-07-17T20:31:31.630Z,19.20
2018-07-17T20:34:00.924Z,19.20
2018-07-17T20:36:30.116Z,19.00
2018-07-17T20:38:59.251Z,19.00
2018-07-17T20:41:28.504Z,19.00
2018-07-17T20:43:57.652Z,18.90
2018-07-17T20:46:26.853Z,18.80
2018-07-17T20:48:56.044Z,18.80
2018-07-17T20:51:25.289Z,18.60
2018-07-17T20:53:54.518Z,18.50
2018-07-17T20:56:23.747Z,18.50
2018-07-17T20:58:52.924Z,18.30
2018-07-17T21:01:22.144Z,18.20
2018-07-17T21:03:51.369Z,18.10
2018-07-17T21:06:20.513Z,18.00
2018-07-17T21:08:49.659Z,18.00
2018-07-17T21:11:18.889Z,18.00
2018-07-17T21:13:48.045Z,17.90
2018-07-17T21:16:17.356Z,17.90
2018-07-17T21:18:46.552Z,17.90
2018-07-17T21:21:15.691Z,17.80
2018-07-17T21:23:44.900Z,17.70
2018-07-17T21:26:14.087Z,17.70
2018-07-17T21:28:43.322Z,17.70
2018-07-17T21:31:12.442Z,17.60
2018-07-17T21:33:41.602Z,17.60
2018-07-17T21:36:10.797Z,17.60
2018-07-17T21:38:39.928Z,17.50
2018-07-17T21:41:09.060Z,17.50
2018-07-17T21:43:38.244Z,17.40
2018-07-17T21:46:07.423Z,17.40
2018-07-17T21:48:36.594Z,17.30
2018-07-17T21:51:05.852Z,17.30
2018-07-17T21:53:36.063Z,17.20
2018-07-17T21:56:05.356Z,17.30
2018-07-17T21:58:34.515Z,17.20
2018-07-17T22:01:03.694Z,17.10
2018-07-17T22:03:32.853Z,17.10
2018-07-17T22:06:02.071Z,17.00
2018-07-17T22:08:31.211Z,17.00
2018-07-17T22:11:00.341Z,17.00
2018-07-17T22:13:29.506Z,16.90
2018-07-17T22:15:58.616Z,16.90
2018-07-17T22:18:27.745Z,16.80
2018-07-17T22:20:56.908Z,16.70
2018-07-17T22:23:26.025Z,16.70
2018-07-17T22:25:55.351Z,16.60
2018-07-17T22:28:24.496Z,16.50
2018-07-17T22:30:53.616Z,16.50
2018-07-17T22:33:22.767Z,16.40
2018-07-17T22:35:51.947Z,16.40
2018-07-17T22:38:21.079Z,16.30
2018-07-17T22:40:50.253Z,16.20
2018-07-17T22:43:19.454Z,16.20
2018-07-17T22:46:09.824Z,16.10
2018-07-17T22:48:39.002Z,16.10
2018-07-17T22:51:08.192Z,16.10
2018-07-17T22:53:37.317Z,16.00
2018-07-17T22:56:06.467Z,16.00
2018-07-17T22:58:35.645Z,15.90
2018-07-17T23:01:04.777Z,15.90
2018-07-17T23:03:33.908Z,15.90
2018-07-17T23:06:03.177Z,15.80
2018-07-17T23:08:32.324Z,15.80
2018-07-17T23:11:01.513Z,15.70
2018-07-17T23:13:30.652Z,15.80
2018-07-17T23:15:59.794Z,15.70
2018-07-17T23:18:29.024Z,15.70
2018-07-17T23:20:58.204Z,15.70
2018-07-17T23:23:27.340Z,15.60
2018-07-17T23:25:56.524Z,15.60
2018-07-17T23:28:25.874Z,15.60
2018-07-17T23:31:01.476Z,15.60
2018-07-17T23:33:30.597Z,15.60
2018-07-17T23:35:59.726Z,15.60
2018-07-17T23:38:28.880Z,15.70
2018-07-17T23:40:58.021Z,15.70
2018-07-17T23:43:27.137Z,15.60
2018-07-17T23:45:56.315Z,15.60
2018-07-17T23:48:25.452Z,15.60
2018-07-17T23:50:54.559Z,15.60
2018-07-17T23:53:23.717Z,15.50
2018-07-17T23:55:52.919Z,15.40
2018-07-17T23:58:22.112Z,15.30
